createdAt,value
2019-05-30T00:00:43.415Z,11.22
2019-05-30T00:03:14.277Z,11.24
2019-05-30T00:05:44.847Z,11.25
2019-05-30T00:08:15.513Z,11.23
2019-05-30T00:10:46.196Z,11.30
2019-05-30T00:13:16.867Z,11.29
2019-05-30T00:15:47.849Z,11.19
2019-05-30T00:18:18.542Z,11.14
2019-05-30T00:20:49.223Z,11.08
2019-05-30T00:23:19.761Z,10.93
2019-05-30T00:25:50.437Z,10.80
2019-05-30T00:28:21.127Z,10.81
2019-05-30T00:30:51.748Z,10.78
2019-05-30T00:33:22.310Z,10.77
2019-05-30T00:35:52.929Z,10.79
2019-05-30T00:38:23.650Z,10.81
2019-05-30T00:40:55.773Z,10.84
2019-05-30T00:43:26.482Z,10.77
2019-05-30T00:45:57.940Z,10.60
2019-05-30T00:48:28.540Z,10.57
2019-05-30T00:51:00.222Z,10.53
2019-05-30T00:53:31.047Z,10.44
2019-05-30T00:56:03.013Z,10.59
2019-05-30T00:58:33.756Z,10.53
2019-05-30T01:01:05.180Z,10.50
2019-05-30T01:03:36.016Z,10.61
2019-05-30T01:06:07.284Z,10.49
2019-05-30T01:08:37.944Z,10.61
2019-05-30T01:11:09.435Z,10.50
2019-05-30T01:13:40.105Z,10.39
2019-05-30T01:16:10.919Z,10.27
2019-05-30T01:18:41.506Z,10.20
2019-05-30T01:21:12.064Z,10.27
2019-05-30T01:23:45.426Z,10.40
2019-05-30T01:26:16.083Z,10.37
2019-05-30T01:28:46.654Z,10.42
2019-05-30T01:31:17.480Z,10.39
2019-05-30T01:33:48.052Z,10.42
2019-05-30T01:36:18.833Z,10.34
2019-05-30T01:38:50.615Z,10.30
2019-05-30T01:41:21.334Z,10.24
2019-05-30T01:43:51.905Z,10.14
2019-05-30T01:46:22.642Z,10.09
2019-05-30T01:48:54.388Z,10.06
2019-05-30T01:51:25.098Z,10.00
2019-05-30T01:53:55.726Z,10.01
2019-05-30T01:56:26.489Z,9.92
2019-05-30T01:58:58.550Z,10.00
2019-05-30T02:01:29.614Z,9.86
2019-05-30T02:04:01.353Z,9.88
2019-05-30T02:06:32.488Z,9.88
2019-05-30T02:09:03.385Z,9.91
2019-05-30T02:11:35.710Z,9.93
2019-05-30T02:14:07.657Z,9.88
2019-05-30T02:16:38.408Z,9.80
2019-05-30T02:19:10.522Z,9.75
2019-05-30T02:21:41.695Z,9.71
2019-05-30T02:24:12.522Z,9.86
2019-05-30T02:26:43.347Z,9.79
2019-05-30T02:29:14.021Z,9.79
2019-05-30T02:31:45.659Z,9.81
2019-05-30T02:34:16.413Z,9.78
2019-05-30T02:36:48.665Z,9.83
2019-05-30T02:39:19.407Z,9.80
2019-05-30T02:41:49.969Z,9.76
2019-05-30T02:44:20.585Z,9.56
2019-05-30T02:46:53.061Z,9.59
2019-05-30T02:49:23.958Z,9.55
2019-05-30T02:51:54.898Z,9.51
2019-05-30T02:54:25.683Z,9.58
2019-05-30T02:56:56.656Z,9.58
2019-05-30T02:59:27.787Z,9.61
2019-05-30T03:02:01.917Z,9.68
2019-05-30T03:04:30.987Z,9.68
2019-05-30T03:07:02.395Z,9.73
2019-05-30T03:09:34.084Z,9.66
2019-05-30T03:12:06.953Z,9.65
2019-05-30T03:14:37.362Z,9.64
2019-05-30T03:17:10.258Z,9.62
2019-05-30T03:19:40.451Z,9.61
2019-05-30T03:22:12.285Z,9.58
2019-05-30T03:24:45.078Z,9.64
2019-05-30T03:27:15.709Z,9.63
2019-05-30T03:29:47.458Z,9.54
2019-05-30T03:33:00.237Z,9.50
2019-05-30T03:34:50.970Z,9.55
2019-05-30T03:37:28.428Z,9.59
2019-05-30T03:39:54.275Z,9.53
2019-05-30T03:42:27.007Z,9.68
2019-05-30T03:44:57.572Z,9.61
2019-05-30T03:47:31.214Z,9.57
2019-05-30T03:50:06.253Z,9.70
2019-05-30T03:52:36.797Z,9.79
2019-05-30T03:55:11.856Z,9.91
2019-05-30T03:57:54.861Z,10.00
2019-05-30T04:00:37.299Z,10.13
2019-05-30T04:03:13.217Z,9.92
2019-05-30T04:05:58.255Z,10.03
2019-05-30T04:08:40.535Z,10.13
2019-05-30T04:11:16.927Z,10.16
2019-05-30T04:13:55.503Z,10.10
2019-05-30T04:16:26.637Z,10.14
2019-05-30T04:19:00.134Z,10.24
2019-05-30T04:21:31.171Z,10.36
2019-05-30T04:24:05.132Z,10.31
2019-05-30T04:26:37.235Z,10.57
2019-05-30T04:29:09.786Z,10.56
2019-05-30T04:31:40.939Z,10.71
2019-05-30T04:34:12.551Z,10.79
2019-05-30T04:36:45.338Z,10.89
2019-05-30T04:39:17.156Z,10.93
2019-05-30T04:41:48.058Z,11.07
2019-05-30T04:44:20.338Z,11.20
2019-05-30T04:46:51.370Z,11.13
2019-05-30T04:49:22.915Z,11.37
2019-05-30T04:51:53.537Z,11.43
2019-05-30T04:54:24.344Z,11.57
2019-05-30T04:56:54.891Z,11.71
2019-05-30T04:59:25.502Z,11.79
2019-05-30T05:01:56.606Z,11.87
2019-05-30T05:04:27.276Z,11.99
2019-05-30T05:06:57.896Z,11.96
2019-05-30T05:09:31.603Z,12.24
2019-05-30T05:12:03.530Z,12.38
2019-05-30T05:14:34.479Z,12.47
2019-05-30T05:17:05.231Z,12.55
2019-05-30T05:19:39.612Z,12.74
2019-05-30T05:22:12.853Z,12.84
2019-05-30T05:24:43.775Z,12.69
2019-05-30T05:27:15.491Z,13.04
2019-05-30T05:29:46.238Z,16.90
2019-05-30T05:32:18.250Z,19.94
2019-05-30T05:34:51.932Z,21.84
2019-05-30T05:37:21.438Z,22.87
2019-05-30T05:39:52.152Z,24.34
2019-05-30T05:42:27.130Z,24.84
2019-05-30T05:44:55.611Z,25.27
2019-05-30T05:47:26.275Z,25.94
2019-05-30T05:49:56.992Z,26.18
2019-05-30T05:52:27.709Z,26.95
2019-05-30T05:54:59.412Z,27.38
2019-05-30T05:57:30.378Z,26.85
2019-05-30T06:00:01.147Z,27.33
2019-05-30T06:02:32.025Z,27.65
2019-05-30T06:05:02.702Z,28.36
2019-05-30T06:07:33.569Z,28.13
2019-05-30T06:10:05.786Z,28.40
2019-05-30T06:12:36.381Z,28.66
2019-05-30T06:15:07.290Z,28.44
2019-05-30T06:17:38.946Z,28.42
2019-05-30T06:20:09.953Z,28.75
2019-05-30T06:22:41.080Z,28.22
2019-05-30T06:25:11.848Z,28.13
2019-05-30T06:27:42.497Z,28.32
2019-05-30T06:30:13.311Z,27.76
2019-05-30T06:32:43.977Z,27.58
2019-05-30T06:35:14.793Z,28.12
2019-05-30T06:37:45.374Z,28.59
2019-05-30T06:40:16.110Z,28.78
2019-05-30T06:42:46.692Z,29.02
2019-05-30T06:45:18.037Z,29.01
2019-05-30T06:47:48.683Z,29.05
2019-05-30T06:50:20.680Z,28.75
2019-05-30T06:52:54.483Z,29.01
2019-05-30T06:55:25.240Z,28.99
2019-05-30T06:57:56.029Z,28.41
2019-05-30T07:00:28.114Z,28.86
2019-05-30T07:02:58.912Z,29.12
2019-05-30T07:05:31.586Z,29.50
2019-05-30T07:08:01.926Z,29.10
2019-05-30T07:10:33.141Z,28.35
2019-05-30T07:13:03.929Z,27.83
2019-05-30T07:15:34.604Z,27.59
2019-05-30T07:18:05.279Z,28.11
2019-05-30T07:20:35.969Z,27.61
2019-05-30T07:23:06.563Z,28.07
2019-05-30T07:25:37.236Z,28.07
2019-05-30T07:28:07.801Z,28.46
2019-05-30T07:30:38.500Z,26.71
2019-05-30T07:33:09.206Z,26.98
2019-05-30T07:35:39.751Z,26.92
2019-05-30T07:38:11.087Z,26.77
2019-05-30T07:40:41.667Z,27.32
2019-05-30T07:43:12.339Z,25.99
2019-05-30T07:45:48.601Z,27.04
2019-05-30T07:48:15.374Z,27.84
2019-05-30T07:50:45.957Z,28.03
2019-05-30T07:53:16.628Z,28.31
2019-05-30T07:55:47.196Z,27.65
2019-05-30T07:58:18.236Z,28.21
2019-05-30T08:00:48.927Z,26.69
2019-05-30T08:03:19.608Z,26.12
2019-05-30T08:05:50.288Z,25.38
2019-05-30T08:08:21.099Z,25.25
2019-05-30T08:11:08.051Z,26.02
2019-05-30T08:13:24.209Z,25.93
2019-05-30T08:15:54.756Z,25.45
2019-05-30T08:18:25.469Z,24.45
2019-05-30T08:20:56.228Z,25.71
2019-05-30T08:23:27.970Z,25.86
2019-05-30T08:25:58.566Z,25.28
2019-05-30T08:28:30.306Z,24.80
2019-05-30T08:31:00.951Z,24.39
2019-05-30T08:33:31.533Z,25.45
2019-05-30T08:36:05.523Z,25.59
2019-05-30T08:38:35.333Z,25.75
2019-05-30T08:41:06.129Z,24.19
2019-05-30T08:43:37.569Z,25.62
2019-05-30T08:46:09.322Z,26.06
2019-05-30T08:48:40.874Z,25.48
2019-05-30T08:51:12.552Z,26.41
2019-05-30T08:53:43.136Z,27.11
2019-05-30T08:56:13.699Z,26.95
2019-05-30T08:58:44.271Z,27.01
2019-05-30T09:01:14.858Z,26.17
2019-05-30T09:03:46.286Z,24.80
2019-05-30T09:06:17.090Z,23.42
2019-05-30T09:08:47.811Z,23.75
2019-05-30T09:11:18.582Z,23.89
2019-05-30T09:13:49.180Z,24.96
2019-05-30T09:16:19.795Z,24.06
2019-05-30T09:18:50.459Z,23.79
2019-05-30T09:21:21.236Z,23.44
2019-05-30T09:23:51.893Z,25.30
2019-05-30T09:26:22.716Z,25.76
2019-05-30T09:28:53.384Z,25.40
2019-05-30T09:31:24.048Z,26.05
2019-05-30T09:33:54.643Z,26.47
2019-05-30T09:36:25.387Z,26.62
2019-05-30T09:38:55.959Z,26.64
2019-05-30T09:41:26.527Z,25.93
2019-05-30T09:43:57.192Z,26.46
2019-05-30T09:46:27.782Z,26.07
2019-05-30T09:48:58.387Z,24.90
2019-05-30T09:51:29.056Z,25.21
2019-05-30T09:53:59.623Z,25.13
2019-05-30T09:56:30.324Z,24.58
2019-05-30T09:59:01.104Z,24.49
2019-05-30T10:04:52.498Z,25.82
2019-05-30T10:07:23.220Z,25.80
2019-05-30T10:09:53.881Z,25.76
2019-05-30T10:12:24.587Z,24.91
2019-05-30T10:14:57.010Z,24.72
2019-05-30T10:17:27.803Z,25.05
2019-05-30T10:19:58.385Z,23.56
2019-05-30T10:22:29.055Z,22.52
2019-05-30T10:24:59.728Z,23.40
2019-05-30T10:27:30.502Z,23.77
2019-05-30T10:30:01.107Z,23.81
2019-05-30T10:32:31.947Z,23.89
2019-05-30T10:35:02.519Z,23.27
2019-05-30T10:37:33.375Z,23.21
2019-05-30T10:40:07.090Z,22.71
2019-05-30T10:42:37.713Z,23.09
2019-05-30T10:45:10.270Z,23.46
2019-05-30T10:47:41.007Z,23.08
2019-05-30T10:50:12.241Z,22.95
2019-05-30T10:52:45.524Z,21.62
2019-05-30T10:55:18.016Z,21.52
2019-05-30T10:57:49.990Z,21.04
2019-05-30T11:00:22.913Z,21.35
2019-05-30T11:02:54.989Z,21.75
2019-05-30T11:05:25.722Z,22.40
2019-05-30T11:08:06.414Z,22.42
2019-05-30T11:10:42.242Z,21.93
2019-05-30T11:13:18.163Z,21.93
2019-05-30T11:15:49.895Z,21.25
2019-05-30T11:18:21.143Z,21.06
2019-05-30T11:20:52.314Z,21.04
2019-05-30T11:23:22.998Z,20.95
2019-05-30T11:25:54.689Z,21.09
2019-05-30T11:28:25.360Z,21.42
2019-05-30T11:30:57.479Z,21.04
2019-05-30T11:33:28.051Z,20.95
2019-05-30T11:35:59.261Z,21.08
2019-05-30T11:38:30.023Z,21.66
2019-05-30T11:41:00.673Z,21.29
2019-05-30T11:43:31.349Z,21.25
2019-05-30T11:46:02.071Z,21.20
2019-05-30T11:48:32.739Z,21.16
2019-05-30T11:51:03.322Z,21.31
2019-05-30T11:53:33.917Z,21.23
2019-05-30T11:56:04.709Z,21.28
2019-05-30T11:58:35.305Z,21.28
2019-05-30T12:01:06.012Z,20.52
2019-05-30T12:03:37.006Z,20.80
2019-05-30T12:06:07.654Z,20.92
2019-05-30T12:08:39.408Z,21.46
2019-05-30T12:11:09.983Z,21.75
2019-05-30T12:13:41.006Z,21.72
2019-05-30T12:16:11.505Z,22.11
2019-05-30T12:18:42.218Z,21.85
2019-05-30T12:21:12.891Z,22.26
2019-05-30T12:23:43.641Z,22.40
2019-05-30T12:26:14.216Z,22.67
2019-05-30T12:28:45.937Z,22.44
2019-05-30T12:31:16.545Z,22.29
2019-05-30T12:33:47.108Z,22.44
2019-05-30T12:36:17.809Z,22.76
2019-05-30T12:38:48.494Z,22.76
2019-05-30T12:41:19.274Z,21.77
2019-05-30T12:43:49.963Z,21.77
2019-05-30T12:46:20.744Z,21.34
2019-05-30T12:48:51.645Z,22.51
2019-05-30T12:51:22.394Z,22.51
2019-05-30T12:53:54.305Z,22.81
2019-05-30T12:56:25.110Z,22.89
2019-05-30T12:58:56.580Z,22.77
2019-05-30T13:01:27.645Z,22.77
2019-05-30T13:03:58.920Z,22.24
2019-05-30T13:06:30.289Z,22.09
2019-05-30T13:09:01.207Z,22.66
2019-05-30T13:11:33.790Z,22.66
2019-05-30T13:14:04.646Z,22.93
2019-05-30T13:16:35.215Z,22.90
2019-05-30T13:19:06.429Z,23.04
2019-05-30T13:21:38.131Z,22.99
2019-05-30T13:24:10.464Z,22.79
2019-05-30T13:26:41.151Z,22.81
2019-05-30T13:29:11.825Z,22.85
2019-05-30T13:31:42.820Z,23.11
2019-05-30T13:34:13.490Z,23.12
2019-05-30T13:36:44.078Z,22.88
2019-05-30T13:39:14.658Z,22.88
2019-05-30T13:41:45.261Z,22.50
2019-05-30T13:44:15.934Z,22.34
2019-05-30T13:46:46.520Z,22.72
2019-05-30T13:49:17.183Z,22.85
2019-05-30T13:51:47.838Z,22.54
2019-05-30T13:54:18.561Z,22.18
2019-05-30T13:56:49.126Z,22.55
2019-05-30T13:59:19.967Z,22.63
2019-05-30T14:01:50.551Z,22.84
2019-05-30T14:04:21.234Z,22.57
2019-05-30T14:06:52.011Z,21.94
2019-05-30T14:09:22.896Z,21.67
2019-05-30T14:11:53.682Z,21.73
2019-05-30T14:14:24.419Z,21.82
2019-05-30T14:16:54.998Z,21.52
2019-05-30T14:19:25.693Z,21.83
2019-05-30T14:21:56.376Z,21.68
2019-05-30T14:24:28.620Z,21.82
2019-05-30T14:26:59.466Z,21.54
2019-05-30T14:29:30.445Z,22.01
2019-05-30T14:32:02.282Z,22.52
2019-05-30T14:34:33.149Z,22.36
2019-05-30T14:37:04.883Z,22.36
2019-05-30T14:39:35.698Z,22.09
2019-05-30T14:42:07.078Z,22.27
2019-05-30T14:44:37.648Z,21.82
2019-05-30T14:47:08.721Z,21.65
2019-05-30T14:49:39.289Z,21.31
2019-05-30T14:52:11.752Z,21.10
2019-05-30T14:54:42.241Z,21.20
2019-05-30T14:57:13.104Z,21.58
2019-05-30T14:59:43.797Z,21.98
2019-05-30T15:02:14.373Z,22.09
2019-05-30T15:04:45.484Z,21.78
2019-05-30T15:07:16.473Z,21.92
2019-05-30T15:09:47.798Z,21.82
2019-05-30T15:12:18.473Z,22.04
2019-05-30T15:14:49.191Z,22.08
2019-05-30T15:17:19.730Z,22.08
2019-05-30T15:19:50.447Z,21.91
2019-05-30T15:22:20.998Z,21.48
2019-05-30T15:24:51.568Z,21.65
2019-05-30T15:27:22.153Z,21.68
2019-05-30T15:29:52.851Z,21.68
2019-05-30T15:32:23.668Z,21.59
2019-05-30T15:34:54.501Z,21.59
2019-05-30T15:37:25.099Z,21.50
2019-05-30T15:39:55.890Z,21.25
2019-05-30T15:44:55.791Z,21.15
2019-05-30T15:47:26.483Z,21.15
2019-05-30T15:49:57.288Z,21.37
2019-05-30T15:52:27.963Z,21.53
2019-05-30T15:54:58.713Z,21.53
2019-05-30T15:57:29.550Z,21.49
2019-05-30T16:00:00.296Z,21.34
2019-05-30T16:02:31.105Z,21.34
2019-05-30T16:05:01.711Z,21.08
2019-05-30T16:07:32.366Z,20.84
2019-05-30T16:10:03.708Z,20.80
2019-05-30T16:12:34.366Z,20.93
2019-05-30T16:15:08.592Z,21.01
2019-05-30T16:17:39.165Z,20.94
2019-05-30T16:20:13.745Z,21.02
2019-05-30T16:22:46.149Z,20.98
2019-05-30T16:25:17.757Z,20.79
2019-05-30T16:27:48.928Z,20.90
2019-05-30T16:30:24.376Z,20.86
2019-05-30T16:32:53.971Z,20.90
2019-05-30T16:35:24.625Z,20.86
2019-05-30T16:37:55.386Z,20.74
2019-05-30T16:40:26.690Z,20.73
2019-05-30T16:42:57.354Z,20.75
2019-05-30T16:45:28.213Z,20.81
2019-05-30T16:47:59.386Z,20.80
2019-05-30T16:50:30.066Z,20.75
2019-05-30T16:53:00.701Z,20.73
2019-05-30T16:55:31.384Z,20.69
2019-05-30T16:58:01.967Z,20.65
2019-05-30T17:00:32.704Z,20.56
2019-05-30T17:03:03.478Z,20.59
2019-05-30T17:05:34.619Z,20.41
2019-05-30T17:08:05.653Z,20.43
2019-05-30T17:10:36.523Z,20.42
2019-05-30T17:13:07.351Z,20.41
2019-05-30T17:15:38.093Z,20.36
2019-05-30T17:18:08.962Z,20.38
2019-05-30T17:20:39.766Z,20.38
2019-05-30T17:23:10.622Z,20.35
2019-05-30T17:25:41.492Z,20.30
2019-05-30T17:28:14.911Z,20.33
2019-05-30T17:30:45.249Z,20.34
2019-05-30T17:33:18.240Z,20.32
2019-05-30T17:35:48.712Z,20.22
2019-05-30T17:38:20.426Z,20.25
2019-05-30T17:40:51.041Z,20.21
2019-05-30T17:43:22.923Z,20.20
2019-05-30T17:45:55.767Z,20.12
2019-05-30T17:48:27.634Z,20.15
2019-05-30T17:50:58.389Z,20.17
2019-05-30T17:53:30.081Z,20.06
2019-05-30T17:56:00.742Z,20.07
2019-05-30T17:58:31.386Z,19.98
2019-05-30T18:01:02.058Z,19.92
2019-05-30T18:03:34.165Z,19.91
2019-05-30T18:06:04.957Z,19.86
2019-05-30T18:08:35.742Z,19.81
2019-05-30T18:11:06.642Z,19.71
2019-05-30T18:13:40.129Z,19.65
2019-05-30T18:16:10.946Z,19.59
2019-05-30T18:18:42.674Z,19.57
2019-05-30T18:21:13.386Z,19.57
2019-05-30T18:23:44.873Z,19.65
2019-05-30T18:26:15.650Z,19.64
2019-05-30T18:28:46.343Z,19.58
2019-05-30T18:31:19.160Z,19.54
2019-05-30T18:33:49.948Z,19.46
2019-05-30T18:36:24.242Z,19.20
2019-05-30T18:38:55.390Z,19.07
2019-05-30T18:41:26.610Z,18.83
2019-05-30T18:43:57.366Z,18.65
2019-05-30T18:46:29.143Z,18.49
2019-05-30T18:48:59.949Z,18.29
2019-05-30T18:51:30.923Z,18.33
2019-05-30T18:54:01.606Z,18.24
2019-05-30T18:56:32.800Z,17.98
2019-05-30T18:59:04.617Z,17.76
2019-05-30T19:01:35.647Z,17.47
2019-05-30T19:04:06.556Z,17.34
2019-05-30T19:06:37.513Z,17.17
2019-05-30T19:09:08.924Z,17.10
2019-05-30T19:11:39.770Z,16.97
2019-05-30T19:14:11.030Z,16.93
2019-05-30T19:16:43.980Z,16.84
2019-05-30T19:19:14.563Z,16.68
2019-05-30T19:21:45.379Z,16.56
2019-05-30T19:24:16.041Z,16.56
2019-05-30T19:26:46.622Z,16.46
2019-05-30T19:29:17.441Z,16.31
2019-05-30T19:31:48.717Z,16.24
2019-05-30T19:34:19.331Z,16.15
2019-05-30T19:36:50.636Z,16.11
2019-05-30T19:39:23.518Z,16.02
2019-05-30T19:41:57.377Z,15.97
2019-05-30T19:44:27.731Z,15.90
2019-05-30T19:46:58.646Z,15.86
2019-05-30T19:49:30.363Z,15.80
2019-05-30T19:52:01.156Z,15.80
2019-05-30T19:54:33.074Z,15.78
2019-05-30T19:57:04.154Z,15.79
2019-05-30T19:59:36.274Z,15.73
2019-05-30T20:02:08.065Z,15.65
2019-05-30T20:04:38.909Z,15.61
2019-05-30T20:07:11.367Z,15.49
2019-05-30T20:09:43.148Z,15.43
2019-05-30T20:12:14.553Z,15.45
2019-05-30T20:14:46.105Z,15.41
2019-05-30T20:17:16.847Z,15.39
2019-05-30T20:19:48.570Z,15.32
2019-05-30T20:22:19.335Z,15.25
2019-05-30T20:24:50.757Z,15.20
2019-05-30T20:27:23.081Z,15.19
2019-05-30T20:29:54.150Z,15.16
2019-05-30T20:32:25.398Z,15.18
2019-05-30T20:34:57.722Z,15.14
2019-05-30T20:37:29.189Z,15.06
2019-05-30T20:39:59.877Z,15.07
2019-05-30T20:42:30.677Z,15.08
2019-05-30T20:45:01.422Z,15.12
2019-05-30T20:47:36.877Z,15.12
2019-05-30T20:50:09.566Z,15.11
2019-05-30T20:52:43.320Z,15.07
2019-05-30T20:55:13.576Z,14.96
2019-05-30T20:57:44.418Z,15.00
2019-05-30T21:00:18.068Z,14.95
2019-05-30T21:02:48.784Z,14.94
2019-05-30T21:05:19.863Z,14.87
2019-05-30T21:07:51.969Z,14.80
2019-05-30T21:10:22.564Z,14.83
2019-05-30T21:12:54.468Z,14.79
2019-05-30T21:15:25.212Z,14.77
2019-05-30T21:17:58.675Z,14.77
2019-05-30T21:20:30.595Z,14.73
2019-05-30T21:23:01.681Z,14.67
2019-05-30T21:25:35.658Z,14.66
2019-05-30T21:28:04.812Z,14.62
2019-05-30T21:30:36.697Z,14.60
2019-05-30T21:33:07.394Z,14.63
2019-05-30T21:35:39.755Z,14.65
2019-05-30T21:38:11.560Z,14.60
2019-05-30T21:40:42.515Z,14.57
2019-05-30T21:43:14.281Z,14.60
2019-05-30T21:45:44.986Z,14.58
2019-05-30T21:48:15.668Z,14.56
2019-05-30T21:50:47.580Z,14.56
2019-05-30T21:53:19.858Z,14.53
2019-05-30T21:55:52.181Z,14.49
2019-05-30T21:58:22.939Z,14.47
2019-05-30T22:01:14.806Z,14.39
2019-05-30T22:03:46.507Z,14.42
2019-05-30T22:06:19.270Z,14.36
2019-05-30T22:08:51.516Z,14.32
2019-05-30T22:11:22.163Z,14.31
2019-05-30T22:13:52.743Z,14.27
2019-05-30T22:16:23.484Z,14.26
2019-05-30T22:18:55.635Z,14.25
2019-05-30T22:21:26.188Z,14.26
2019-05-30T22:23:56.761Z,14.26
2019-05-30T22:26:27.318Z,14.23
2019-05-30T22:28:57.910Z,14.28
2019-05-30T22:31:28.488Z,14.26
2019-05-30T22:33:59.261Z,14.24
2019-05-30T22:36:29.850Z,14.19
2019-05-30T22:39:00.543Z,14.19
2019-05-30T22:41:32.018Z,14.17
2019-05-30T22:44:03.458Z,14.09
2019-05-30T22:46:34.244Z,14.10
2019-05-30T22:49:06.148Z,14.07
2019-05-30T22:51:36.886Z,14.08
2019-05-30T22:54:07.635Z,14.06
2019-05-30T22:56:38.315Z,14.04
2019-05-30T22:59:09.969Z,14.05
2019-05-30T23:01:40.705Z,13.98
2019-05-30T23:04:12.709Z,13.97
2019-05-30T23:06:43.403Z,13.93
2019-05-30T23:09:14.286Z,13.86
2019-05-30T23:11:45.577Z,13.89
2019-05-30T23:14:16.411Z,13.93
2019-05-30T23:16:48.210Z,13.92
2019-05-30T23:19:19.020Z,13.99
2019-05-30T23:21:51.562Z,14.00
2019-05-30T23:24:22.208Z,14.09
2019-05-30T23:26:53.749Z,14.07
2019-05-30T23:29:24.457Z,14.09
2019-05-30T23:31:56.175Z,14.13
2019-05-30T23:34:27.073Z,14.07
2019-05-30T23:36:58.757Z,14.02
2019-05-30T23:39:29.357Z,13.98
2019-05-30T23:41:59.896Z,13.96
2019-05-30T23:44:30.566Z,13.96
2019-05-30T23:47:01.134Z,13.93
2019-05-30T23:49:31.756Z,13.91
2019-05-30T23:52:03.547Z,13.87
2019-05-30T23:54:34.124Z,13.86
2019-05-30T23:57:05.087Z,13.83
2019-05-30T23:59:35.662Z,13.72
